sensor_id;sensor_type;location;lat;lon;timestamp;P1;durP1;ratioP1;P2;durP2;ratioP2
46198;SDS011;31928;52.104;10.030;2023-07-24T00:00:55;1.42;;;1.33;;
46198;SDS011;31928;52.104;10.030;2023-07-24T00:03:22;1.40;;;1.30;;
46198;SDS011;31928;52.104;10.030;2023-07-24T00:05:49;1.52;;;1.42;;
46198;SDS011;31928;52.104;10.030;2023-07-24T00:08:15;1.42;;;1.33;;
46198;SDS011;31928;52.104;10.030;2023-07-24T00:10:42;2.90;;;1.30;;
46198;SDS011;31928;52.104;10.030;2023-07-24T00:13:09;1.67;;;1.58;;
46198;SDS011;31928;52.104;10.030;2023-07-24T00:15:35;1.40;;;1.30;;
46198;SDS011;31928;52.104;10.030;2023-07-24T00:18:04;1.50;;;1.38;;
46198;SDS011;31928;52.104;10.030;2023-07-24T00:20:31;1.85;;;1.70;;
46198;SDS011;31928;52.104;10.030;2023-07-24T00:22:58;1.45;;;1.35;;
46198;SDS011;31928;52.104;10.030;2023-07-24T00:25:24;1.58;;;1.48;;
46198;SDS011;31928;52.104;10.030;2023-07-24T00:27:51;1.60;;;1.50;;
46198;SDS011;31928;52.104;10.030;2023-07-24T00:30:18;1.63;;;1.52;;
46198;SDS011;31928;52.104;10.030;2023-07-24T00:32:44;1.50;;;1.40;;
46198;SDS011;31928;52.104;10.030;2023-07-24T00:35:11;1.40;;;1.30;;
46198;SDS011;31928;52.104;10.030;2023-07-24T00:37:38;1.77;;;1.67;;
46198;SDS011;31928;52.104;10.030;2023-07-24T00:40:05;1.50;;;1.40;;
46198;SDS011;31928;52.104;10.030;2023-07-24T00:42:32;1.80;;;1.70;;
46198;SDS011;31928;52.104;10.030;2023-07-24T00:44:59;1.55;;;1.45;;
46198;SDS011;31928;52.104;10.030;2023-07-24T00:47:28;1.67;;;1.58;;
46198;SDS011;31928;52.104;10.030;2023-07-24T00:49:55;1.60;;;1.50;;
46198;SDS011;31928;52.104;10.030;2023-07-24T00:52:22;1.60;;;1.50;;
46198;SDS011;31928;52.104;10.030;2023-07-24T00:54:49;1.50;;;1.40;;
46198;SDS011;31928;52.104;10.030;2023-07-24T00:57:16;1.60;;;1.50;;
46198;SDS011;31928;52.104;10.030;2023-07-24T00:59:43;1.40;;;1.30;;
46198;SDS011;31928;52.104;10.030;2023-07-24T01:02:11;1.95;;;1.30;;
46198;SDS011;31928;52.104;10.030;2023-07-24T01:04:38;1.60;;;1.50;;
46198;SDS011;31928;52.104;10.030;2023-07-24T01:07:05;1.50;;;1.40;;
46198;SDS011;31928;52.104;10.030;2023-07-24T01:09:32;1.75;;;1.48;;
46198;SDS011;31928;52.104;10.030;2023-07-24T01:12:03;1.67;;;1.58;;
46198;SDS011;31928;52.104;10.030;2023-07-24T01:14:39;1.50;;;1.40;;
46198;SDS011;31928;52.104;10.030;2023-07-24T01:17:11;1.50;;;1.40;;
46198;SDS011;31928;52.104;10.030;2023-07-24T01:19:44;1.38;;;1.30;;
46198;SDS011;31928;52.104;10.030;2023-07-24T01:27:48;1.45;;;1.35;;
46198;SDS011;31928;52.104;10.030;2023-07-24T01:30:17;1.77;;;1.67;;
46198;SDS011;31928;52.104;10.030;2023-07-24T01:32:45;1.60;;;1.50;;
46198;SDS011;31928;52.104;10.030;2023-07-24T01:35:12;3.42;;;2.10;;
46198;SDS011;31928;52.104;10.030;2023-07-24T01:37:39;1.70;;;1.60;;
46198;SDS011;31928;52.104;10.030;2023-07-24T01:40:07;1.65;;;1.55;;
46198;SDS011;31928;52.104;10.030;2023-07-24T01:42:35;1.75;;;1.52;;
46198;SDS011;31928;52.104;10.030;2023-07-24T01:45:02;1.80;;;1.70;;
46198;SDS011;31928;52.104;10.030;2023-07-24T01:47:30;1.90;;;1.80;;
46198;SDS011;31928;52.104;10.030;2023-07-24T01:49:57;1.60;;;1.50;;
46198;SDS011;31928;52.104;10.030;2023-07-24T01:52:23;2.00;;;1.90;;
46198;SDS011;31928;52.104;10.030;2023-07-24T01:54:50;1.70;;;1.58;;
46198;SDS011;31928;52.104;10.030;2023-07-24T01:57:17;1.65;;;1.55;;
46198;SDS011;31928;52.104;10.030;2023-07-24T01:59:43;1.70;;;1.60;;
46198;SDS011;31928;52.104;10.030;2023-07-24T02:02:11;1.70;;;1.60;;
46198;SDS011;31928;52.104;10.030;2023-07-24T02:04:38;1.50;;;1.40;;
46198;SDS011;31928;52.104;10.030;2023-07-24T02:07:04;1.77;;;1.67;;
46198;SDS011;31928;52.104;10.030;2023-07-24T02:09:31;1.35;;;1.27;;
46198;SDS011;31928;52.104;10.030;2023-07-24T02:11:58;1.50;;;1.40;;
46198;SDS011;31928;52.104;10.030;2023-07-24T02:14:24;1.55;;;1.45;;
46198;SDS011;31928;52.104;10.030;2023-07-24T02:16:51;1.60;;;1.50;;
46198;SDS011;31928;52.104;10.030;2023-07-24T02:19:17;1.40;;;1.30;;
46198;SDS011;31928;52.104;10.030;2023-07-24T02:21:44;2.20;;;1.60;;
46198;SDS011;31928;52.104;10.030;2023-07-24T02:24:11;1.63;;;1.52;;
46198;SDS011;31928;52.104;10.030;2023-07-24T02:26:37;1.52;;;1.42;;
46198;SDS011;31928;52.104;10.030;2023-07-24T02:29:04;1.70;;;1.60;;
46198;SDS011;31928;52.104;10.030;2023-07-24T02:31:30;1.80;;;1.70;;
46198;SDS011;31928;52.104;10.030;2023-07-24T02:33:57;1.60;;;1.50;;
46198;SDS011;31928;52.104;10.030;2023-07-24T02:36:24;1.50;;;1.40;;
46198;SDS011;31928;52.104;10.030;2023-07-24T02:38:50;1.58;;;1.48;;
46198;SDS011;31928;52.104;10.030;2023-07-24T02:41:17;1.77;;;1.67;;
46198;SDS011;31928;52.104;10.030;2023-07-24T02:43:44;1.80;;;1.70;;
46198;SDS011;31928;52.104;10.030;2023-07-24T02:46:10;1.70;;;1.60;;
46198;SDS011;31928;52.104;10.030;2023-07-24T02:48:37;1.52;;;1.42;;
46198;SDS011;31928;52.104;10.030;2023-07-24T02:51:04;1.50;;;1.40;;
46198;SDS011;31928;52.104;10.030;2023-07-24T02:53:30;1.80;;;1.70;;
46198;SDS011;31928;52.104;10.030;2023-07-24T02:55:57;1.58;;;1.48;;
46198;SDS011;31928;52.104;10.030;2023-07-24T02:58:24;1.50;;;1.40;;
46198;SDS011;31928;52.104;10.030;2023-07-24T03:00:50;1.50;;;1.40;;
46198;SDS011;31928;52.104;10.030;2023-07-24T03:03:17;1.65;;;1.55;;
46198;SDS011;31928;52.104;10.030;2023-07-24T03:05:44;2.63;;;1.67;;
46198;SDS011;31928;52.104;10.030;2023-07-24T03:08:11;2.75;;;1.70;;
46198;SDS011;31928;52.104;10.030;2023-07-24T03:10:41;1.25;;;1.20;;
46198;SDS011;31928;52.104;10.030;2023-07-24T03:13:08;1.40;;;1.30;;
46198;SDS011;31928;52.104;10.030;2023-07-24T03:15:34;1.75;;;1.65;;
46198;SDS011;31928;52.104;10.030;2023-07-24T03:18:01;1.42;;;1.33;;
46198;SDS011;31928;52.104;10.030;2023-07-24T03:20:28;1.58;;;1.48;;
46198;SDS011;31928;52.104;10.030;2023-07-24T03:22:55;1.50;;;1.40;;
46198;SDS011;31928;52.104;10.030;2023-07-24T03:25:21;2.90;;;1.50;;
46198;SDS011;31928;52.104;10.030;2023-07-24T03:27:48;2.17;;;2.03;;
46198;SDS011;31928;52.104;10.030;2023-07-24T03:30:15;1.52;;;1.42;;
46198;SDS011;31928;52.104;10.030;2023-07-24T03:32:42;1.75;;;1.65;;
46198;SDS011;31928;52.104;10.030;2023-07-24T03:35:08;1.80;;;1.52;;
46198;SDS011;31928;52.104;10.030;2023-07-24T03:37:35;1.75;;;1.65;;
46198;SDS011;31928;52.104;10.030;2023-07-24T03:40:02;1.60;;;1.50;;
46198;SDS011;31928;52.104;10.030;2023-07-24T03:42:30;1.60;;;1.50;;
46198;SDS011;31928;52.104;10.030;2023-07-24T03:44:57;1.65;;;1.55;;
46198;SDS011;31928;52.104;10.030;2023-07-24T03:47:24;1.70;;;1.48;;
46198;SDS011;31928;52.104;10.030;2023-07-24T03:49:51;1.60;;;1.50;;
46198;SDS011;31928;52.104;10.030;2023-07-24T03:52:17;1.58;;;1.40;;
46198;SDS011;31928;52.104;10.030;2023-07-24T03:54:44;1.70;;;1.60;;
46198;SDS011;31928;52.104;10.030;2023-07-24T03:57:11;1.73;;;1.63;;
46198;SDS011;31928;52.104;10.030;2023-07-24T03:59:38;1.80;;;1.70;;
46198;SDS011;31928;52.104;10.030;2023-07-24T04:02:04;1.65;;;1.55;;
46198;SDS011;31928;52.104;10.030;2023-07-24T04:04:35;1.50;;;1.40;;
46198;SDS011;31928;52.104;10.030;2023-07-24T04:07:02;1.60;;;1.50;;
46198;SDS011;31928;52.104;10.030;2023-07-24T04:09:29;1.80;;;1.70;;
46198;SDS011;31928;52.104;10.030;2023-07-24T04:11:56;1.50;;;1.40;;
46198;SDS011;31928;52.104;10.030;2023-07-24T04:14:23;2.25;;;1.90;;
46198;SDS011;31928;52.104;10.030;2023-07-24T04:16:49;1.80;;;1.70;;
46198;SDS011;31928;52.104;10.030;2023-07-24T04:19:16;2.75;;;1.63;;
46198;SDS011;31928;52.104;10.030;2023-07-24T04:21:43;1.40;;;1.30;;
46198;SDS011;31928;52.104;10.030;2023-07-24T04:24:09;1.60;;;1.50;;
46198;SDS011;31928;52.104;10.030;2023-07-24T04:26:36;2.15;;;1.60;;
46198;SDS011;31928;52.104;10.030;2023-07-24T04:29:03;2.35;;;2.15;;
46198;SDS011;31928;52.104;10.030;2023-07-24T04:31:30;1.70;;;1.60;;
46198;SDS011;31928;52.104;10.030;2023-07-24T04:33:56;1.52;;;1.42;;
46198;SDS011;31928;52.104;10.030;2023-07-24T04:36:23;2.00;;;1.50;;
46198;SDS011;31928;52.104;10.030;2023-07-24T04:38:50;1.80;;;1.67;;
46198;SDS011;31928;52.104;10.030;2023-07-24T04:41:16;1.70;;;1.60;;
46198;SDS011;31928;52.104;10.030;2023-07-24T04:43:43;1.50;;;1.40;;
46198;SDS011;31928;52.104;10.030;2023-07-24T04:46:10;1.63;;;1.52;;
46198;SDS011;31928;52.104;10.030;2023-07-24T04:48:36;2.85;;;1.70;;
46198;SDS011;31928;52.104;10.030;2023-07-24T04:51:03;1.83;;;1.73;;
46198;SDS011;31928;52.104;10.030;2023-07-24T04:53:33;2.03;;;1.83;;
46198;SDS011;31928;52.104;10.030;2023-07-24T04:55:59;1.60;;;1.50;;
46198;SDS011;31928;52.104;10.030;2023-07-24T04:58:26;1.92;;;1.83;;
46198;SDS011;31928;52.104;10.030;2023-07-24T05:00:52;1.92;;;1.77;;
46198;SDS011;31928;52.104;10.030;2023-07-24T05:03:19;1.92;;;1.83;;
46198;SDS011;31928;52.104;10.030;2023-07-24T05:05:53;2.00;;;1.80;;
46198;SDS011;31928;52.104;10.030;2023-07-24T05:08:22;3.60;;;2.55;;
46198;SDS011;31928;52.104;10.030;2023-07-24T05:10:56;1.90;;;1.80;;
46198;SDS011;31928;52.104;10.030;2023-07-24T05:13:23;1.70;;;1.60;;
46198;SDS011;31928;52.104;10.030;2023-07-24T05:15:50;1.92;;;1.83;;
46198;SDS011;31928;52.104;10.030;2023-07-24T05:18:16;1.80;;;1.70;;
46198;SDS011;31928;52.104;10.030;2023-07-24T05:20:46;1.80;;;1.70;;
46198;SDS011;31928;52.104;10.030;2023-07-24T05:23:14;2.05;;;1.85;;
46198;SDS011;31928;52.104;10.030;2023-07-24T05:25:41;1.90;;;1.75;;
46198;SDS011;31928;52.104;10.030;2023-07-24T05:28:08;2.22;;;1.52;;
46198;SDS011;31928;52.104;10.030;2023-07-24T05:30:35;1.80;;;1.70;;
46198;SDS011;31928;52.104;10.030;2023-07-24T05:33:02;2.33;;;2.00;;
46198;SDS011;31928;52.104;10.030;2023-07-24T05:35:29;1.90;;;1.80;;
46198;SDS011;31928;52.104;10.030;2023-07-24T05:37:56;1.90;;;1.70;;
46198;SDS011;31928;52.104;10.030;2023-07-24T05:40:22;2.30;;;1.70;;
46198;SDS011;31928;52.104;10.030;2023-07-24T05:42:49;2.13;;;2.03;;
46198;SDS011;31928;52.104;10.030;2023-07-24T05:45:16;2.47;;;2.28;;
46198;SDS011;31928;52.104;10.030;2023-07-24T05:47:43;2.20;;;2.00;;
46198;SDS011;31928;52.104;10.030;2023-07-24T05:50:09;2.03;;;1.92;;
46198;SDS011;31928;52.104;10.030;2023-07-24T05:52:36;2.05;;;1.80;;
46198;SDS011;31928;52.104;10.030;2023-07-24T05:55:03;2.40;;;2.13;;
46198;SDS011;31928;52.104;10.030;2023-07-24T05:57:30;2.25;;;2.05;;
46198;SDS011;31928;52.104;10.030;2023-07-24T05:59:57;2.17;;;1.90;;
46198;SDS011;31928;52.104;10.030;2023-07-24T06:02:23;2.20;;;2.00;;
46198;SDS011;31928;52.104;10.030;2023-07-24T06:04:50;2.00;;;1.90;;
46198;SDS011;31928;52.104;10.030;2023-07-24T06:07:17;2.65;;;1.60;;
46198;SDS011;31928;52.104;10.030;2023-07-24T06:09:44;2.03;;;1.90;;
46198;SDS011;31928;52.104;10.030;2023-07-24T06:12:10;2.47;;;2.30;;
46198;SDS011;31928;52.104;10.030;2023-07-24T06:14:37;2.25;;;2.15;;
46198;SDS011;31928;52.104;10.030;2023-07-24T06:17:04;2.38;;;2.17;;
46198;SDS011;31928;52.104;10.030;2023-07-24T06:19:30;2.63;;;2.40;;
46198;SDS011;31928;52.104;10.030;2023-07-24T06:21:57;2.30;;;2.10;;
46198;SDS011;31928;52.104;10.030;2023-07-24T06:24:24;2.30;;;2.10;;
46198;SDS011;31928;52.104;10.030;2023-07-24T06:26:51;2.22;;;2.00;;
46198;SDS011;31928;52.104;10.030;2023-07-24T06:29:17;3.63;;;2.55;;
46198;SDS011;31928;52.104;10.030;2023-07-24T06:31:44;2.33;;;2.13;;
46198;SDS011;31928;52.104;10.030;2023-07-24T06:34:11;2.03;;;1.90;;
46198;SDS011;31928;52.104;10.030;2023-07-24T06:36:37;2.47;;;2.28;;
46198;SDS011;31928;52.104;10.030;2023-07-24T06:39:04;2.10;;;2.00;;
46198;SDS011;31928;52.104;10.030;2023-07-24T06:41:31;2.45;;;2.25;;
46198;SDS011;31928;52.104;10.030;2023-07-24T06:43:58;2.63;;;2.13;;
46198;SDS011;31928;52.104;10.030;2023-07-24T06:46:24;2.50;;;2.13;;
46198;SDS011;31928;52.104;10.030;2023-07-24T06:48:51;2.53;;;2.33;;
46198;SDS011;31928;52.104;10.030;2023-07-24T06:51:18;3.33;;;2.38;;
46198;SDS011;31928;52.104;10.030;2023-07-24T06:53:45;2.20;;;1.90;;
46198;SDS011;31928;52.104;10.030;2023-07-24T06:56:11;3.05;;;2.20;;
46198;SDS011;31928;52.104;10.030;2023-07-24T06:58:38;2.13;;;2.03;;
46198;SDS011;31928;52.104;10.030;2023-07-24T07:01:05;3.13;;;2.30;;
46198;SDS011;31928;52.104;10.030;2023-07-24T07:03:33;2.28;;;2.08;;
46198;SDS011;31928;52.104;10.030;2023-07-24T07:06:01;3.10;;;2.90;;
46198;SDS011;31928;52.104;10.030;2023-07-24T07:08:32;2.25;;;2.03;;
46198;SDS011;31928;52.104;10.030;2023-07-24T07:10:59;2.65;;;2.20;;
46198;SDS011;31928;52.104;10.030;2023-07-24T07:13:28;2.20;;;2.00;;
46198;SDS011;31928;52.104;10.030;2023-07-24T07:15:54;2.50;;;2.20;;
46198;SDS011;31928;52.104;10.030;2023-07-24T07:18:21;2.47;;;2.28;;
46198;SDS011;31928;52.104;10.030;2023-07-24T07:20:49;3.20;;;2.72;;
46198;SDS011;31928;52.104;10.030;2023-07-24T07:23:17;3.33;;;3.03;;
46198;SDS011;31928;52.104;10.030;2023-07-24T07:25:45;2.40;;;2.20;;
46198;SDS011;31928;52.104;10.030;2023-07-24T07:28:15;2.58;;;2.38;;
46198;SDS011;31928;52.104;10.030;2023-07-24T07:30:43;2.35;;;2.15;;
46198;SDS011;31928;52.104;10.030;2023-07-24T07:33:11;2.60;;;2.40;;
46198;SDS011;31928;52.104;10.030;2023-07-24T07:35:38;2.72;;;2.38;;
46198;SDS011;31928;52.104;10.030;2023-07-24T07:38:05;2.65;;;2.45;;
46198;SDS011;31928;52.104;10.030;2023-07-24T07:40:31;2.55;;;2.30;;
46198;SDS011;31928;52.104;10.030;2023-07-24T07:42:58;2.35;;;2.15;;
46198;SDS011;31928;52.104;10.030;2023-07-24T07:45:25;3.35;;;2.58;;
46198;SDS011;31928;52.104;10.030;2023-07-24T07:47:51;2.60;;;2.38;;
46198;SDS011;31928;52.104;10.030;2023-07-24T07:50:19;2.63;;;2.42;;
46198;SDS011;31928;52.104;10.030;2023-07-24T07:52:49;3.67;;;2.70;;
46198;SDS011;31928;52.104;10.030;2023-07-24T07:55:17;2.97;;;2.70;;
46198;SDS011;31928;52.104;10.030;2023-07-24T07:57:45;2.58;;;2.38;;
46198;SDS011;31928;52.104;10.030;2023-07-24T08:00:12;2.88;;;2.67;;
46198;SDS011;31928;52.104;10.030;2023-07-24T08:02:39;5.13;;;2.55;;
46198;SDS011;31928;52.104;10.030;2023-07-24T08:05:10;2.90;;;2.58;;
46198;SDS011;31928;52.104;10.030;2023-07-24T08:07:45;3.17;;;2.88;;
46198;SDS011;31928;52.104;10.030;2023-07-24T08:10:12;3.50;;;2.80;;
46198;SDS011;31928;52.104;10.030;2023-07-24T08:12:43;3.35;;;3.05;;
46198;SDS011;31928;52.104;10.030;2023-07-24T08:15:10;2.83;;;2.63;;
46198;SDS011;31928;52.104;10.030;2023-07-24T08:17:37;3.90;;;3.42;;
46198;SDS011;31928;52.104;10.030;2023-07-24T08:20:05;2.80;;;2.60;;
46198;SDS011;31928;52.104;10.030;2023-07-24T08:22:32;3.10;;;2.80;;
46198;SDS011;31928;52.104;10.030;2023-07-24T08:24:59;3.15;;;2.85;;
46198;SDS011;31928;52.104;10.030;2023-07-24T08:27:26;3.20;;;2.90;;
46198;SDS011;31928;52.104;10.030;2023-07-24T08:29:52;3.38;;;3.08;;
46198;SDS011;31928;52.104;10.030;2023-07-24T08:32:19;2.78;;;2.50;;
46198;SDS011;31928;52.104;10.030;2023-07-24T08:34:47;3.55;;;2.72;;
46198;SDS011;31928;52.104;10.030;2023-07-24T08:37:13;3.13;;;2.75;;
46198;SDS011;31928;52.104;10.030;2023-07-24T08:39:40;2.80;;;2.45;;
46198;SDS011;31928;52.104;10.030;2023-07-24T08:42:11;3.08;;;2.78;;
46198;SDS011;31928;52.104;10.030;2023-07-24T08:44:38;2.78;;;2.53;;
46198;SDS011;31928;52.104;10.030;2023-07-24T08:47:06;3.22;;;2.92;;
46198;SDS011;31928;52.104;10.030;2023-07-24T08:49:38;3.10;;;2.65;;
46198;SDS011;31928;52.104;10.030;2023-07-24T08:52:09;3.28;;;2.97;;
46198;SDS011;31928;52.104;10.030;2023-07-24T08:54:48;3.63;;;3.33;;
46198;SDS011;31928;52.104;10.030;2023-07-24T08:57:16;2.30;;;2.10;;
46198;SDS011;31928;52.104;10.030;2023-07-24T08:59:43;2.35;;;2.13;;
46198;SDS011;31928;52.104;10.030;2023-07-24T09:02:09;2.92;;;2.63;;
46198;SDS011;31928;52.104;10.030;2023-07-24T09:04:36;2.75;;;2.55;;
46198;SDS011;31928;52.104;10.030;2023-07-24T09:07:03;2.80;;;2.60;;
46198;SDS011;31928;52.104;10.030;2023-07-24T09:09:30;4.70;;;2.50;;
46198;SDS011;31928;52.104;10.030;2023-07-24T09:11:57;2.80;;;2.60;;
46198;SDS011;31928;52.104;10.030;2023-07-24T09:14:27;2.88;;;2.58;;
46198;SDS011;31928;52.104;10.030;2023-07-24T09:17:16;2.30;;;2.10;;
46198;SDS011;31928;52.104;10.030;2023-07-24T09:19:42;3.28;;;2.63;;
46198;SDS011;31928;52.104;10.030;2023-07-24T09:22:10;2.40;;;2.20;;
46198;SDS011;31928;52.104;10.030;2023-07-24T09:24:55;3.20;;;3.00;;
46198;SDS011;31928;52.104;10.030;2023-07-24T09:27:29;3.85;;;2.42;;
46198;SDS011;31928;52.104;10.030;2023-07-24T09:29:58;2.60;;;2.40;;
46198;SDS011;31928;52.104;10.030;2023-07-24T09:32:25;2.47;;;2.28;;
46198;SDS011;31928;52.104;10.030;2023-07-24T09:34:53;1.70;;;1.60;;
46198;SDS011;31928;52.104;10.030;2023-07-24T09:37:30;1.85;;;1.75;;
46198;SDS011;31928;52.104;10.030;2023-07-24T09:40:03;2.03;;;1.92;;
46198;SDS011;31928;52.104;10.030;2023-07-24T09:42:31;1.88;;;1.67;;
46198;SDS011;31928;52.104;10.030;2023-07-24T09:44:59;1.85;;;1.75;;
46198;SDS011;31928;52.104;10.030;2023-07-24T09:47:27;2.20;;;2.08;;
46198;SDS011;31928;52.104;10.030;2023-07-24T09:50:14;2.05;;;1.95;;
46198;SDS011;31928;52.104;10.030;2023-07-24T09:52:41;1.95;;;1.80;;
46198;SDS011;31928;52.104;10.030;2023-07-24T09:55:11;2.55;;;2.35;;
46198;SDS011;31928;52.104;10.030;2023-07-24T15:27:33;1.50;;;1.40;;
46198;SDS011;31928;52.104;10.030;2023-07-24T15:29:59;1.58;;;1.48;;
46198;SDS011;31928;52.104;10.030;2023-07-24T15:32:26;1.70;;;1.60;;
46198;SDS011;31928;52.104;10.030;2023-07-24T15:34:53;1.50;;;1.40;;
46198;SDS011;31928;52.104;10.030;2023-07-24T15:37:20;1.73;;;1.63;;
46198;SDS011;31928;52.104;10.030;2023-07-24T15:39:47;1.90;;;1.70;;
46198;SDS011;31928;52.104;10.030;2023-07-24T15:42:14;1.50;;;1.40;;
46198;SDS011;31928;52.104;10.030;2023-07-24T15:44:41;1.60;;;1.50;;
46198;SDS011;31928;52.104;10.030;2023-07-24T15:47:08;2.60;;;1.60;;
46198;SDS011;31928;52.104;10.030;2023-07-24T15:49:35;1.70;;;1.60;;
46198;SDS011;31928;52.104;10.030;2023-07-24T15:52:01;1.70;;;1.60;;
46198;SDS011;31928;52.104;10.030;2023-07-24T15:54:29;1.58;;;1.48;;
46198;SDS011;31928;52.104;10.030;2023-07-24T15:56:56;1.67;;;1.58;;
46198;SDS011;31928;52.104;10.030;2023-07-24T15:59:23;2.50;;;1.50;;
46198;SDS011;31928;52.104;10.030;2023-07-24T16:01:51;2.08;;;1.88;;
46198;SDS011;31928;52.104;10.030;2023-07-24T16:04:18;2.40;;;1.80;;
46198;SDS011;31928;52.104;10.030;2023-07-24T16:06:47;2.00;;;1.90;;
46198;SDS011;31928;52.104;10.030;2023-07-24T16:09:14;1.92;;;1.63;;
46198;SDS011;31928;52.104;10.030;2023-07-24T16:11:41;2.05;;;1.85;;
46198;SDS011;31928;52.104;10.030;2023-07-24T16:14:12;1.65;;;1.52;;
46198;SDS011;31928;52.104;10.030;2023-07-24T16:16:38;1.80;;;1.70;;
46198;SDS011;31928;52.104;10.030;2023-07-24T16:19:15;1.80;;;1.70;;
46198;SDS011;31928;52.104;10.030;2023-07-24T16:21:44;2.47;;;1.50;;
46198;SDS011;31928;52.104;10.030;2023-07-24T16:24:11;1.60;;;1.50;;
46198;SDS011;31928;52.104;10.030;2023-07-24T16:26:39;1.80;;;1.70;;
46198;SDS011;31928;52.104;10.030;2023-07-24T16:29:06;1.73;;;1.63;;
46198;SDS011;31928;52.104;10.030;2023-07-24T16:31:33;1.70;;;1.60;;
46198;SDS011;31928;52.104;10.030;2023-07-24T16:34:02;2.40;;;1.92;;
46198;SDS011;31928;52.104;10.030;2023-07-24T16:36:29;2.08;;;1.83;;
46198;SDS011;31928;52.104;10.030;2023-07-24T16:39:01;2.10;;;1.90;;
46198;SDS011;31928;52.104;10.030;2023-07-24T16:41:32;1.67;;;1.58;;
46198;SDS011;31928;52.104;10.030;2023-07-24T16:43:59;1.77;;;1.67;;
46198;SDS011;31928;52.104;10.030;2023-07-24T16:46:28;1.70;;;1.60;;
46198;SDS011;31928;52.104;10.030;2023-07-24T16:48:55;2.15;;;1.95;;
46198;SDS011;31928;52.104;10.030;2023-07-24T16:51:22;1.75;;;1.65;;
46198;SDS011;31928;52.104;10.030;2023-07-24T16:53:49;2.00;;;1.90;;
46198;SDS011;31928;52.104;10.030;2023-07-24T16:56:16;2.03;;;1.83;;
46198;SDS011;31928;52.104;10.030;2023-07-24T16:58:42;2.03;;;1.83;;
46198;SDS011;31928;52.104;10.030;2023-07-24T17:01:09;2.53;;;1.70;;
46198;SDS011;31928;52.104;10.030;2023-07-24T17:03:36;2.20;;;2.00;;
46198;SDS011;31928;52.104;10.030;2023-07-24T17:06:03;4.28;;;1.90;;
46198;SDS011;31928;52.104;10.030;2023-07-24T17:08:30;1.65;;;1.55;;
46198;SDS011;31928;52.104;10.030;2023-07-24T17:10:57;1.77;;;1.67;;
46198;SDS011;31928;52.104;10.030;2023-07-24T17:13:24;2.22;;;2.03;;
46198;SDS011;31928;52.104;10.030;2023-07-24T17:15:51;1.90;;;1.80;;
46198;SDS011;31928;52.104;10.030;2023-07-24T17:18:18;2.25;;;1.98;;
46198;SDS011;31928;52.104;10.030;2023-07-24T17:20:45;1.67;;;1.58;;
46198;SDS011;31928;52.104;10.030;2023-07-24T17:23:12;1.60;;;1.50;;
46198;SDS011;31928;52.104;10.030;2023-07-24T17:25:38;2.05;;;1.95;;
46198;SDS011;31928;52.104;10.030;2023-07-24T17:28:06;1.80;;;1.70;;
46198;SDS011;31928;52.104;10.030;2023-07-24T17:30:33;1.73;;;1.63;;
46198;SDS011;31928;52.104;10.030;2023-07-24T17:33:00;1.70;;;1.60;;
46198;SDS011;31928;52.104;10.030;2023-07-24T17:35:30;1.73;;;1.63;;
46198;SDS011;31928;52.104;10.030;2023-07-24T17:37:59;1.63;;;1.52;;
46198;SDS011;31928;52.104;10.030;2023-07-24T17:40:26;1.85;;;1.75;;
46198;SDS011;31928;52.104;10.030;2023-07-24T17:42:53;1.80;;;1.70;;
46198;SDS011;31928;52.104;10.030;2023-07-24T17:45:22;2.22;;;1.88;;
46198;SDS011;31928;52.104;10.030;2023-07-24T17:47:49;1.75;;;1.65;;
46198;SDS011;31928;52.104;10.030;2023-07-24T17:50:16;2.20;;;2.00;;
46198;SDS011;31928;52.104;10.030;2023-07-24T17:52:43;1.70;;;1.60;;
46198;SDS011;31928;52.104;10.030;2023-07-24T17:55:09;2.83;;;2.00;;
46198;SDS011;31928;52.104;10.030;2023-07-24T17:57:36;2.00;;;1.90;;
46198;SDS011;31928;52.104;10.030;2023-07-24T18:00:03;1.73;;;1.63;;
46198;SDS011;31928;52.104;10.030;2023-07-24T18:02:30;1.60;;;1.50;;
46198;SDS011;31928;52.104;10.030;2023-07-24T18:04:57;1.90;;;1.80;;
46198;SDS011;31928;52.104;10.030;2023-07-24T18:07:24;1.80;;;1.70;;
46198;SDS011;31928;52.104;10.030;2023-07-24T18:09:51;1.92;;;1.80;;
46198;SDS011;31928;52.104;10.030;2023-07-24T18:12:18;1.73;;;1.63;;
46198;SDS011;31928;52.104;10.030;2023-07-24T18:14:45;1.75;;;1.65;;
46198;SDS011;31928;52.104;10.030;2023-07-24T18:17:12;2.25;;;1.80;;
46198;SDS011;31928;52.104;10.030;2023-07-24T18:19:39;3.53;;;2.00;;
46198;SDS011;31928;52.104;10.030;2023-07-24T18:22:06;5.43;;;2.63;;
46198;SDS011;31928;52.104;10.030;2023-07-24T18:24:33;2.55;;;1.85;;
46198;SDS011;31928;52.104;10.030;2023-07-24T18:27:00;2.67;;;1.70;;
46198;SDS011;31928;52.104;10.030;2023-07-24T18:29:27;2.20;;;2.00;;
46198;SDS011;31928;52.104;10.030;2023-07-24T18:31:53;2.30;;;1.90;;
46198;SDS011;31928;52.104;10.030;2023-07-24T18:34:21;2.08;;;1.88;;
46198;SDS011;31928;52.104;10.030;2023-07-24T18:36:50;1.92;;;1.83;;
46198;SDS011;31928;52.104;10.030;2023-07-24T18:39:17;1.90;;;1.80;;
46198;SDS011;31928;52.104;10.030;2023-07-24T18:41:44;1.92;;;1.80;;
46198;SDS011;31928;52.104;10.030;2023-07-24T18:44:13;3.13;;;1.77;;
46198;SDS011;31928;52.104;10.030;2023-07-24T18:46:40;2.22;;;2.03;;
46198;SDS011;31928;52.104;10.030;2023-07-24T18:49:07;2.22;;;1.92;;
46198;SDS011;31928;52.104;10.030;2023-07-24T18:51:34;2.10;;;2.00;;
46198;SDS011;31928;52.104;10.030;2023-07-24T18:54:01;2.20;;;2.00;;
46198;SDS011;31928;52.104;10.030;2023-07-24T18:56:28;1.85;;;1.75;;
46198;SDS011;31928;52.104;10.030;2023-07-24T18:58:55;2.15;;;2.05;;
46198;SDS011;31928;52.104;10.030;2023-07-24T19:01:21;1.70;;;1.60;;
46198;SDS011;31928;52.104;10.030;2023-07-24T19:03:48;2.10;;;1.92;;
46198;SDS011;31928;52.104;10.030;2023-07-24T19:06:15;2.67;;;2.05;;
46198;SDS011;31928;52.104;10.030;2023-07-24T19:08:46;1.98;;;1.80;;
46198;SDS011;31928;52.104;10.030;2023-07-24T19:11:16;2.17;;;1.92;;
46198;SDS011;31928;52.104;10.030;2023-07-24T19:13:44;2.25;;;2.05;;
46198;SDS011;31928;52.104;10.030;2023-07-24T19:16:11;2.67;;;1.80;;
46198;SDS011;31928;52.104;10.030;2023-07-24T19:18:38;2.17;;;1.98;;
46198;SDS011;31928;52.104;10.030;2023-07-24T19:21:06;2.85;;;2.03;;
46198;SDS011;31928;52.104;10.030;2023-07-24T19:23:33;3.40;;;2.00;;
46198;SDS011;31928;52.104;10.030;2023-07-24T19:26:00;2.45;;;2.13;;
46198;SDS011;31928;52.104;10.030;2023-07-24T19:28:28;2.67;;;1.90;;
46198;SDS011;31928;52.104;10.030;2023-07-24T19:30:55;2.10;;;1.90;;
46198;SDS011;31928;52.104;10.030;2023-07-24T19:33:24;2.15;;;1.58;;
46198;SDS011;31928;52.104;10.030;2023-07-24T19:35:58;3.55;;;2.00;;
46198;SDS011;31928;52.104;10.030;2023-07-24T19:38:27;3.22;;;2.10;;
46198;SDS011;31928;52.104;10.030;2023-07-24T19:40:58;2.00;;;1.90;;
46198;SDS011;31928;52.104;10.030;2023-07-24T19:43:26;1.77;;;1.67;;
46198;SDS011;31928;52.104;10.030;2023-07-24T19:45:54;1.83;;;1.67;;
46198;SDS011;31928;52.104;10.030;2023-07-24T19:48:21;2.50;;;2.30;;
46198;SDS011;31928;52.104;10.030;2023-07-24T19:50:51;2.10;;;1.90;;
46198;SDS011;31928;52.104;10.030;2023-07-24T19:53:22;1.63;;;1.30;;
46198;SDS011;31928;52.104;10.030;2023-07-24T19:55:50;2.70;;;2.38;;
46198;SDS011;31928;52.104;10.030;2023-07-24T19:58:18;2.17;;;1.35;;
46198;SDS011;31928;52.104;10.030;2023-07-24T20:00:58;2.10;;;1.40;;
46198;SDS011;31928;52.104;10.030;2023-07-24T20:03:26;1.70;;;1.52;;
46198;SDS011;31928;52.104;10.030;2023-07-24T20:05:54;1.70;;;1.60;;
46198;SDS011;31928;52.104;10.030;2023-07-24T20:08:21;1.70;;;1.60;;
46198;SDS011;31928;52.104;10.030;2023-07-24T20:10:49;2.17;;;1.65;;